sensor_id;sensor_type;location;lat;lon;timestamp;pressure;altitude;pressure_sealevel;temperature;humidity
22582;BME280;47125;48.542;9.052;2023-07-28T00:01:46;95431.84;;;18.53;nan
22582;BME280;47125;48.542;9.052;2023-07-28T00:11:48;95425.44;;;18.62;nan
22582;BME280;47125;48.542;9.052;2023-07-28T00:21:52;95417.22;;;18.67;nan
22582;BME280;47125;48.542;9.052;2023-07-28T00:31:57;95419.31;;;18.70;nan
22582;BME280;47125;48.542;9.052;2023-07-28T00:42:01;95426.75;;;18.65;nan
22582;BME280;47125;48.542;9.052;2023-07-28T00:52:03;95421.94;;;18.62;nan
22582;BME280;47125;48.542;9.052;2023-07-28T01:02:09;95420.44;;;18.56;nan
22582;BME280;47125;48.542;9.052;2023-07-28T01:12:12;95423.13;;;18.69;nan
22582;BME280;47125;48.542;9.052;2023-07-28T01:22:20;95417.63;;;18.61;nan
22582;BME280;47125;48.542;9.052;2023-07-28T01:32:29;95403.97;;;18.66;nan
22582;BME280;47125;48.542;9.052;2023-07-28T01:42:32;95402.00;;;18.58;nan
22582;BME280;47125;48.542;9.052;2023-07-28T01:52:36;95398.81;;;18.56;nan
22582;BME280;47125;48.542;9.052;2023-07-28T02:02:38;95388.78;;;18.56;nan
22582;BME280;47125;48.542;9.052;2023-07-28T02:12:42;95381.44;;;18.43;nan
22582;BME280;47125;48.542;9.052;2023-07-28T02:22:45;95385.44;;;18.46;nan
22582;BME280;47125;48.542;9.052;2023-07-28T02:32:49;95389.06;;;18.41;nan
22582;BME280;47125;48.542;9.052;2023-07-28T02:42:52;95391.03;;;18.36;nan
22582;BME280;47125;48.542;9.052;2023-07-28T02:52:56;95402.97;;;18.21;nan
22582;BME280;47125;48.542;9.052;2023-07-28T03:02:58;95415.81;;;18.29;nan
22582;BME280;47125;48.542;9.052;2023-07-28T03:13:04;95434.16;;;18.00;nan
22582;BME280;47125;48.542;9.052;2023-07-28T03:23:06;95429.53;;;17.87;nan
22582;BME280;47125;48.542;9.052;2023-07-28T03:33:10;95438.72;;;17.72;nan
22582;BME280;47125;48.542;9.052;2023-07-28T03:43:13;95450.72;;;17.80;nan
22582;BME280;47125;48.542;9.052;2023-07-28T03:53:17;95446.72;;;17.77;nan
22582;BME280;47125;48.542;9.052;2023-07-28T04:03:19;95444.22;;;17.81;nan
22582;BME280;47125;48.542;9.052;2023-07-28T04:13:23;95453.06;;;17.86;nan
22582;BME280;47125;48.542;9.052;2023-07-28T04:23:26;95431.56;;;17.95;nan
22582;BME280;47125;48.542;9.052;2023-07-28T04:33:30;95433.75;;;17.93;nan
22582;BME280;47125;48.542;9.052;2023-07-28T04:43:32;95422.97;;;18.06;nan
22582;BME280;47125;48.542;9.052;2023-07-28T04:53:36;95428.47;;;18.15;nan
22582;BME280;47125;48.542;9.052;2023-07-28T05:03:39;95437.13;;;18.17;nan
22582;BME280;47125;48.542;9.052;2023-07-28T05:13:42;95438.94;;;18.35;nan
22582;BME280;47125;48.542;9.052;2023-07-28T05:23:45;95457.16;;;18.43;nan
22582;BME280;47125;48.542;9.052;2023-07-28T05:33:49;95455.59;;;18.56;nan
22582;BME280;47125;48.542;9.052;2023-07-28T05:43:51;95458.31;;;18.56;nan
22582;BME280;47125;48.542;9.052;2023-07-28T05:53:55;95471.78;;;18.42;nan
22582;BME280;47125;48.542;9.052;2023-07-28T06:03:58;95474.91;;;18.49;nan
22582;BME280;47125;48.542;9.052;2023-07-28T06:14:02;95484.53;;;18.55;nan
22582;BME280;47125;48.542;9.052;2023-07-28T06:24:05;95486.75;;;18.67;nan
22582;BME280;47125;48.542;9.052;2023-07-28T06:34:09;95516.88;;;18.60;nan
22582;BME280;47125;48.542;9.052;2023-07-28T06:44:11;95527.53;;;18.70;nan
22582;BME280;47125;48.542;9.052;2023-07-28T06:54:15;95519.41;;;18.84;nan
22582;BME280;47125;48.542;9.052;2023-07-28T07:04:18;95539.34;;;18.88;nan
22582;BME280;47125;48.542;9.052;2023-07-28T07:14:22;95542.34;;;18.87;nan
22582;BME280;47125;48.542;9.052;2023-07-28T07:24:24;95549.19;;;18.98;nan
22582;BME280;47125;48.542;9.052;2023-07-28T07:34:28;95541.94;;;19.20;nan
22582;BME280;47125;48.542;9.052;2023-07-28T07:44:31;95558.69;;;19.36;nan
22582;BME280;47125;48.542;9.052;2023-07-28T07:54:35;95570.53;;;19.54;nan
22582;BME280;47125;48.542;9.052;2023-07-28T08:04:37;95570.38;;;19.72;nan
22582;BME280;47125;48.542;9.052;2023-07-28T08:14:41;95581.63;;;20.02;nan
22582;BME280;47125;48.542;9.052;2023-07-28T08:24:44;95589.22;;;20.13;nan
22582;BME280;47125;48.542;9.052;2023-07-28T08:34:48;95587.97;;;20.33;nan
22582;BME280;47125;48.542;9.052;2023-07-28T08:44:50;95597.91;;;20.60;nan
22582;BME280;47125;48.542;9.052;2023-07-28T08:54:55;95595.16;;;21.13;nan
22582;BME280;47125;48.542;9.052;2023-07-28T09:04:57;95605.19;;;21.52;nan
22582;BME280;47125;48.542;9.052;2023-07-28T09:15:01;95601.84;;;21.55;nan
22582;BME280;47125;48.542;9.052;2023-07-28T09:25:10;95608.91;;;21.64;nan
22582;BME280;47125;48.542;9.052;2023-07-28T09:35:15;95597.63;;;21.96;nan
22582;BME280;47125;48.542;9.052;2023-07-28T09:45:18;95601.63;;;21.99;nan
22582;BME280;47125;48.542;9.052;2023-07-28T09:55:39;95601.03;;;22.19;nan
22582;BME280;47125;48.542;9.052;2023-07-28T10:05:43;95597.47;;;22.36;nan
22582;BME280;47125;48.542;9.052;2023-07-28T10:15:48;95604.16;;;22.90;nan
22582;BME280;47125;48.542;9.052;2023-07-28T10:25:55;95613.00;;;22.61;nan
22582;BME280;47125;48.542;9.052;2023-07-28T10:36:00;95612.53;;;22.68;nan
22582;BME280;47125;48.542;9.052;2023-07-28T10:46:13;95619.88;;;22.76;nan
22582;BME280;47125;48.542;9.052;2023-07-28T10:56:18;95612.00;;;22.91;nan
22582;BME280;47125;48.542;9.052;2023-07-28T11:06:21;95625.81;;;22.69;nan
22582;BME280;47125;48.542;9.052;2023-07-28T11:16:25;95639.59;;;22.47;nan
22582;BME280;47125;48.542;9.052;2023-07-28T11:26:28;95640.50;;;22.00;nan
22582;BME280;47125;48.542;9.052;2023-07-28T11:36:32;95640.91;;;21.67;nan
22582;BME280;47125;48.542;9.052;2023-07-28T11:46:35;95636.56;;;21.66;nan
22582;BME280;47125;48.542;9.052;2023-07-28T11:56:41;95644.25;;;21.64;nan
22582;BME280;47125;48.542;9.052;2023-07-28T12:17:05;95630.13;;;22.02;nan
22582;BME280;47125;48.542;9.052;2023-07-28T12:27:16;95621.66;;;22.29;nan
22582;BME280;47125;48.542;9.052;2023-07-28T12:37:23;95616.22;;;22.29;nan
22582;BME280;47125;48.542;9.052;2023-07-28T12:47:28;95621.16;;;22.18;nan
22582;BME280;47125;48.542;9.052;2023-07-28T12:57:39;95620.53;;;22.13;nan
22582;BME280;47125;48.542;9.052;2023-07-28T13:07:42;95637.56;;;21.87;nan
22582;BME280;47125;48.542;9.052;2023-07-28T13:17:48;95662.19;;;21.82;nan
22582;BME280;47125;48.542;9.052;2023-07-28T13:27:51;95652.59;;;21.85;nan
22582;BME280;47125;48.542;9.052;2023-07-28T13:37:55;95667.28;;;21.75;nan
22582;BME280;47125;48.542;9.052;2023-07-28T13:47:58;95654.91;;;21.13;nan
22582;BME280;47125;48.542;9.052;2023-07-28T13:58:01;95644.28;;;21.03;nan
22582;BME280;47125;48.542;9.052;2023-07-28T14:08:04;95597.16;;;20.99;nan
22582;BME280;47125;48.542;9.052;2023-07-28T14:18:08;95651.63;;;21.02;nan
22582;BME280;47125;48.542;9.052;2023-07-28T14:28:10;95642.50;;;21.20;nan
22582;BME280;47125;48.542;9.052;2023-07-28T14:38:14;95655.16;;;21.33;nan
22582;BME280;47125;48.542;9.052;2023-07-28T14:48:17;95662.03;;;21.87;nan
22582;BME280;47125;48.542;9.052;2023-07-28T14:58:24;95659.19;;;21.84;nan
22582;BME280;47125;48.542;9.052;2023-07-28T15:08:27;95676.44;;;21.79;nan
22582;BME280;47125;48.542;9.052;2023-07-28T15:18:30;95668.91;;;21.76;nan
22582;BME280;47125;48.542;9.052;2023-07-28T15:28:33;95662.91;;;21.57;nan
22582;BME280;47125;48.542;9.052;2023-07-28T15:38:37;95673.75;;;21.49;nan
22582;BME280;47125;48.542;9.052;2023-07-28T15:48:39;95669.88;;;21.32;nan
22582;BME280;47125;48.542;9.052;2023-07-28T15:58:45;95666.03;;;21.33;nan
22582;BME280;47125;48.542;9.052;2023-07-28T16:08:48;95671.34;;;21.38;nan
22582;BME280;47125;48.542;9.052;2023-07-28T16:18:53;95662.03;;;21.31;nan
22582;BME280;47125;48.542;9.052;2023-07-28T16:28:55;95642.03;;;21.27;nan
22582;BME280;47125;48.542;9.052;2023-07-28T16:38:59;95650.19;;;21.27;nan
22582;BME280;47125;48.542;9.052;2023-07-28T16:49:03;95647.41;;;21.18;nan
22582;BME280;47125;48.542;9.052;2023-07-28T16:59:07;95653.31;;;21.12;nan
22582;BME280;47125;48.542;9.052;2023-07-28T17:09:09;95660.34;;;21.13;nan
22582;BME280;47125;48.542;9.052;2023-07-28T17:19:13;95663.44;;;21.06;nan
22582;BME280;47125;48.542;9.052;2023-07-28T17:29:16;95665.50;;;21.01;nan
22582;BME280;47125;48.542;9.052;2023-07-28T17:39:20;95677.50;;;20.77;nan
22582;BME280;47125;48.542;9.052;2023-07-28T17:49:23;95683.84;;;20.51;nan
22582;BME280;47125;48.542;9.052;2023-07-28T17:59:27;95688.00;;;20.48;nan
22582;BME280;47125;48.542;9.052;2023-07-28T18:09:29;95683.16;;;20.45;nan
22582;BME280;47125;48.542;9.052;2023-07-28T18:19:34;95684.38;;;20.03;nan
22582;BME280;47125;48.542;9.052;2023-07-28T18:29:36;95692.06;;;20.10;nan
22582;BME280;47125;48.542;9.052;2023-07-28T18:39:40;95705.84;;;20.00;nan
22582;BME280;47125;48.542;9.052;2023-07-28T18:49:43;95699.59;;;20.26;nan
22582;BME280;47125;48.542;9.052;2023-07-28T18:59:46;95712.84;;;20.28;nan
22582;BME280;47125;48.542;9.052;2023-07-28T19:09:49;95726.13;;;20.02;nan
22582;BME280;47125;48.542;9.052;2023-07-28T19:19:53;95748.59;;;20.16;nan
22582;BME280;47125;48.542;9.052;2023-07-28T19:29:55;95753.44;;;20.06;nan
22582;BME280;47125;48.542;9.052;2023-07-28T19:39:59;95766.78;;;20.02;nan
22582;BME280;47125;48.542;9.052;2023-07-28T19:50:02;95765.16;;;20.01;nan
22582;BME280;47125;48.542;9.052;2023-07-28T20:00:14;95771.22;;;19.85;nan
22582;BME280;47125;48.542;9.052;2023-07-28T20:10:17;95749.94;;;19.78;nan
22582;BME280;47125;48.542;9.052;2023-07-28T20:20:21;95751.84;;;19.91;nan
22582;BME280;47125;48.542;9.052;2023-07-28T20:30:24;95746.94;;;19.79;nan
22582;BME280;47125;48.542;9.052;2023-07-28T20:40:28;95756.84;;;19.84;nan
22582;BME280;47125;48.542;9.052;2023-07-28T20:50:31;95741.09;;;19.72;nan
22582;BME280;47125;48.542;9.052;2023-07-28T21:00:34;95753.94;;;19.67;nan
22582;BME280;47125;48.542;9.052;2023-07-28T21:10:37;95749.13;;;19.64;nan
22582;BME280;47125;48.542;9.052;2023-07-28T21:20:41;95746.69;;;19.62;nan
22582;BME280;47125;48.542;9.052;2023-07-28T21:30:43;95731.34;;;19.58;nan
22582;BME280;47125;48.542;9.052;2023-07-28T21:40:48;95760.13;;;19.54;nan
22582;BME280;47125;48.542;9.052;2023-07-28T21:50:51;95749.09;;;19.50;nan
22582;BME280;47125;48.542;9.052;2023-07-28T22:00:55;95746.59;;;19.40;nan
22582;BME280;47125;48.542;9.052;2023-07-28T22:10:57;95755.72;;;19.44;nan
22582;BME280;47125;48.542;9.052;2023-07-28T22:21:01;95749.78;;;19.42;nan
22582;BME280;47125;48.542;9.052;2023-07-28T22:31:04;95749.66;;;19.34;nan
22582;BME280;47125;48.542;9.052;2023-07-28T22:41:08;95740.13;;;19.36;nan
22582;BME280;47125;48.542;9.052;2023-07-28T22:51:10;95736.59;;;19.36;nan
22582;BME280;47125;48.542;9.052;2023-07-28T23:01:16;95723.16;;;19.31;nan
22582;BME280;47125;48.542;9.052;2023-07-28T23:11:19;95727.88;;;19.25;nan
22582;BME280;47125;48.542;9.052;2023-07-28T23:21:23;95720.16;;;19.32;nan
22582;BME280;47125;48.542;9.052;2023-07-28T23:31:25;95727.28;;;19.28;nan
22582;BME280;47125;48.542;9.052;2023-07-28T23:41:30;95711.31;;;19.26;nan
22582;BME280;47125;48.542;9.052;2023-07-28T23:51:33;95686.47;;;19.24;nan
